createdAt,value
2022-11-29T00:01:44.174Z,101037.19
2022-11-29T00:04:13.037Z,101042.06
2022-11-29T00:06:41.880Z,101052.00
2022-11-29T00:09:13.149Z,101045.38
2022-11-29T00:12:00.708Z,101046.16
2022-11-29T00:14:29.912Z,101055.16
2022-11-29T00:17:02.599Z,101046.44
2022-11-29T00:19:31.621Z,101043.47
2022-11-29T00:22:00.472Z,101051.00
2022-11-29T00:24:31.676Z,101049.44
2022-11-29T00:27:01.324Z,101049.03
2022-11-29T00:29:31.140Z,101052.19
2022-11-29T00:32:01.560Z,101041.47
2022-11-29T00:34:30.540Z,101050.59
2022-11-29T00:36:59.188Z,101048.38
2022-11-29T00:39:28.169Z,101037.31
2022-11-29T00:41:56.873Z,101037.03
2022-11-29T00:44:25.710Z,101041.50
2022-11-29T00:46:54.196Z,101036.91
2022-11-29T00:49:24.223Z,101032.25
2022-11-29T00:51:52.944Z,101034.75
2022-11-29T00:54:21.676Z,101036.03
2022-11-29T00:56:50.346Z,101026.19
2022-11-29T00:59:19.172Z,101034.75
2022-11-29T01:01:47.519Z,101026.00
2022-11-29T01:04:16.325Z,101025.31
2022-11-29T01:06:47.343Z,101023.31
2022-11-29T01:09:16.054Z,101021.34
2022-11-29T01:11:44.851Z,101023.63
2022-11-29T01:14:14.567Z,101023.34
2022-11-29T01:16:42.888Z,101011.41
2022-11-29T01:19:11.793Z,101014.50
2022-11-29T01:21:41.336Z,101007.84
2022-11-29T01:24:11.551Z,101006.44
2022-11-29T01:26:40.255Z,101008.88
2022-11-29T01:29:09.041Z,101009.72
2022-11-29T01:31:37.403Z,101003.84
2022-11-29T01:34:07.672Z,100995.25
2022-11-29T01:36:36.331Z,100994.84
2022-11-29T01:39:06.168Z,101003.16
2022-11-29T01:41:37.949Z,101005.19
2022-11-29T01:44:27.931Z,100997.56
2022-11-29T01:46:56.961Z,101000.13
2022-11-29T01:49:31.945Z,100993.03
2022-11-29T01:52:02.601Z,100989.09
2022-11-29T01:54:31.893Z,100992.38
2022-11-29T01:57:04.659Z,100991.47
2022-11-29T01:59:33.390Z,100992.97
2022-11-29T02:02:06.319Z,100996.00
2022-11-29T02:04:36.350Z,100993.72
2022-11-29T02:07:05.370Z,100988.13
2022-11-29T02:09:34.077Z,100992.16
2022-11-29T02:12:18.911Z,100993.91
2022-11-29T02:15:06.742Z,100990.63
2022-11-29T02:17:42.535Z,100995.63
2022-11-29T02:20:43.038Z,100989.75
2022-11-29T02:23:16.278Z,100992.88
2022-11-29T02:26:00.028Z,100995.13
2022-11-29T02:28:47.010Z,100999.41
2022-11-29T02:31:52.998Z,100995.38
2022-11-29T02:34:50.641Z,101001.44
2022-11-29T02:37:44.210Z,100994.72
2022-11-29T02:40:24.541Z,101005.56
2022-11-29T02:43:01.296Z,101005.41
2022-11-29T02:45:40.035Z,101011.53
2022-11-29T02:48:22.798Z,101005.50
2022-11-29T02:50:56.432Z,101010.69
2022-11-29T02:53:30.960Z,101007.13
2022-11-29T02:56:07.323Z,101007.66
2022-11-29T02:58:39.776Z,101009.25
2022-11-29T03:01:12.289Z,101016.47
2022-11-29T03:03:45.061Z,101020.41
2022-11-29T03:06:23.547Z,101012.44
2022-11-29T03:08:56.090Z,101010.63
2022-11-29T03:11:30.420Z,101014.13
2022-11-29T03:14:08.953Z,101010.91
2022-11-29T03:16:43.501Z,101027.47
2022-11-29T03:19:25.363Z,101016.94
2022-11-29T03:22:03.263Z,101009.19
2022-11-29T03:24:36.975Z,101004.56
2022-11-29T03:27:10.828Z,101010.28
2022-11-29T03:29:41.908Z,101014.59
2022-11-29T03:32:14.056Z,101014.28
2022-11-29T03:34:57.337Z,101019.53
2022-11-29T03:37:33.330Z,101010.41
2022-11-29T03:40:06.938Z,101016.13
2022-11-29T03:42:38.977Z,101022.81
2022-11-29T03:45:12.532Z,101031.53
2022-11-29T03:47:46.560Z,101017.84
2022-11-29T03:50:18.401Z,101014.66
2022-11-29T03:52:51.291Z,101017.19
2022-11-29T03:55:31.107Z,101025.13
2022-11-29T03:58:10.958Z,101026.34
2022-11-29T04:00:56.168Z,101036.22
2022-11-29T04:03:58.839Z,101033.41
2022-11-29T04:06:40.700Z,101036.09
2022-11-29T04:09:45.180Z,101049.31
2022-11-29T04:12:43.598Z,101027.81
2022-11-29T04:15:31.695Z,101045.72
2022-11-29T04:18:31.690Z,101038.59
2022-11-29T04:21:33.445Z,101041.72
2022-11-29T04:24:36.661Z,101058.78
2022-11-29T04:27:32.278Z,101044.28
2022-11-29T04:30:14.772Z,101055.41
2022-11-29T04:33:16.534Z,101051.28
2022-11-29T04:35:59.650Z,101050.63
2022-11-29T04:38:48.822Z,101057.88
2022-11-29T04:41:41.586Z,101062.59
2022-11-29T04:44:29.022Z,101057.88
2022-11-29T04:47:09.508Z,101058.97
2022-11-29T04:50:01.953Z,101066.06
2022-11-29T04:52:44.616Z,101058.47
2022-11-29T04:55:34.622Z,101064.88
2022-11-29T04:58:10.713Z,101066.94
2022-11-29T05:00:46.121Z,101068.59
2022-11-29T05:03:21.905Z,101066.50
2022-11-29T05:05:55.147Z,101063.78
2022-11-29T05:08:31.275Z,101076.41
2022-11-29T05:11:05.666Z,101077.34
2022-11-29T05:13:44.093Z,101077.22
2022-11-29T05:16:34.873Z,101079.44
2022-11-29T05:19:20.290Z,101079.44
2022-11-29T05:21:54.255Z,101078.41
2022-11-29T05:24:32.582Z,101076.06
2022-11-29T05:27:07.447Z,101079.44
2022-11-29T05:29:41.865Z,101087.28
2022-11-29T05:32:29.766Z,101082.56
2022-11-29T05:35:21.915Z,101085.56
2022-11-29T05:37:52.933Z,101098.53
2022-11-29T05:40:46.371Z,101096.00
2022-11-29T05:43:26.488Z,101108.59
2022-11-29T05:46:01.516Z,101097.88
2022-11-29T05:48:36.939Z,101106.91
2022-11-29T05:51:16.903Z,101104.44
2022-11-29T05:53:49.149Z,101107.31
2022-11-29T05:56:25.081Z,101109.97
2022-11-29T05:58:58.226Z,101118.41
2022-11-29T06:01:29.341Z,101119.00
2022-11-29T06:04:09.137Z,101119.19
2022-11-29T06:06:46.127Z,101127.75
2022-11-29T06:09:20.075Z,101112.00
2022-11-29T06:11:50.538Z,101136.31
2022-11-29T06:14:34.067Z,101130.19
2022-11-29T06:17:15.941Z,101139.13
2022-11-29T06:19:55.380Z,101130.31
2022-11-29T06:22:47.568Z,101140.31
2022-11-29T06:25:26.549Z,101136.06
2022-11-29T06:28:06.806Z,101138.03
2022-11-29T06:30:42.891Z,101132.47
2022-11-29T06:33:19.882Z,101138.50
2022-11-29T06:35:53.820Z,101145.56
2022-11-29T06:38:24.226Z,101144.13
2022-11-29T06:40:58.623Z,101145.59
2022-11-29T06:43:30.886Z,101149.16
2022-11-29T06:46:03.050Z,101144.66
2022-11-29T06:48:36.370Z,101149.72
2022-11-29T06:51:09.792Z,101151.41
2022-11-29T06:53:44.462Z,101146.78
2022-11-29T06:56:20.722Z,101154.84
2022-11-29T06:59:00.166Z,101153.31
2022-11-29T07:01:37.245Z,101154.53
2022-11-29T07:04:45.766Z,101156.31
2022-11-29T07:07:21.520Z,101160.56
2022-11-29T07:09:53.027Z,101167.84
2022-11-29T07:12:22.557Z,101160.78
2022-11-29T07:14:51.970Z,101167.28
2022-11-29T07:17:25.986Z,101166.53
2022-11-29T07:20:03.730Z,101167.84
2022-11-29T07:22:47.110Z,101167.31
2022-11-29T07:25:24.938Z,101163.47
2022-11-29T07:27:59.149Z,101173.81
2022-11-29T07:30:31.447Z,101174.94
2022-11-29T07:33:06.602Z,101167.75
2022-11-29T07:35:41.846Z,101188.19
2022-11-29T07:38:18.082Z,101174.34
2022-11-29T07:40:52.674Z,101177.84
2022-11-29T07:43:31.414Z,101185.69
2022-11-29T07:46:01.447Z,101185.69
2022-11-29T07:48:30.141Z,101184.75
2022-11-29T07:50:58.895Z,101189.94
2022-11-29T07:53:29.251Z,101192.13
2022-11-29T07:55:59.346Z,101194.72
2022-11-29T07:58:28.059Z,101190.00
2022-11-29T08:00:56.895Z,101184.19
2022-11-29T08:03:25.658Z,101183.25
2022-11-29T08:05:54.878Z,101179.88
2022-11-29T08:08:23.584Z,101175.50
2022-11-29T08:10:53.282Z,101181.06
2022-11-29T08:13:22.491Z,101190.03
2022-11-29T08:15:51.233Z,101189.47
2022-11-29T08:18:19.940Z,101177.50
2022-11-29T08:20:48.618Z,101186.84
2022-11-29T08:23:17.341Z,101186.69
2022-11-29T08:25:45.975Z,101185.16
2022-11-29T08:28:16.203Z,101189.84
2022-11-29T08:30:44.880Z,101192.75
2022-11-29T08:33:13.619Z,101190.56
2022-11-29T08:35:42.465Z,101177.66
2022-11-29T08:38:11.121Z,101195.22
2022-11-29T08:40:39.528Z,101198.00
2022-11-29T08:43:08.344Z,101191.16
2022-11-29T08:45:38.686Z,101203.41
2022-11-29T08:48:08.181Z,101197.06
2022-11-29T08:50:36.873Z,101198.59
2022-11-29T08:53:22.957Z,101191.72
2022-11-29T08:55:51.254Z,101199.66
2022-11-29T08:58:21.521Z,101184.56
2022-11-29T09:00:51.705Z,101185.78
2022-11-29T09:03:37.880Z,101186.06
2022-11-29T09:06:12.264Z,101181.91
2022-11-29T09:08:43.718Z,101187.75
2022-11-29T09:11:14.416Z,101192.41
2022-11-29T09:13:42.862Z,101179.81
2022-11-29T09:16:15.510Z,101190.38
2022-11-29T09:18:50.063Z,101203.22
2022-11-29T09:21:20.537Z,101184.53
2022-11-29T09:23:49.318Z,101185.78
2022-11-29T09:26:19.969Z,101172.38
2022-11-29T09:28:48.106Z,101186.34
2022-11-29T09:31:18.315Z,101182.00
2022-11-29T09:33:46.838Z,101171.00
2022-11-29T09:36:15.795Z,101187.19
2022-11-29T09:38:44.658Z,101179.47
2022-11-29T09:41:26.332Z,101171.44
2022-11-29T09:44:01.943Z,101179.88
2022-11-29T09:46:40.004Z,101172.38
2022-11-29T09:49:21.866Z,101177.06
2022-11-29T09:51:56.361Z,101179.69
2022-11-29T09:54:36.558Z,101178.50
2022-11-29T09:57:10.524Z,101177.66
2022-11-29T09:59:42.917Z,101178.28
2022-11-29T10:02:21.418Z,101163.75
2022-11-29T10:04:52.574Z,101175.31
2022-11-29T10:07:23.590Z,101171.41
2022-11-29T10:09:55.978Z,101165.16
2022-11-29T10:12:30.625Z,101172.41
2022-11-29T10:15:03.843Z,101171.09
2022-11-29T10:17:37.758Z,101160.78
2022-11-29T10:20:12.940Z,101160.84
2022-11-29T10:22:45.565Z,101159.03
2022-11-29T10:25:21.742Z,101157.53
2022-11-29T10:27:50.796Z,101164.44
2022-11-29T10:30:19.920Z,101166.69
2022-11-29T10:32:52.607Z,101160.78
2022-11-29T10:35:21.827Z,101159.31
2022-11-29T10:38:14.675Z,101159.09
2022-11-29T10:40:41.457Z,101159.03
2022-11-29T10:43:10.280Z,101153.41
2022-11-29T10:45:45.937Z,101165.84
2022-11-29T10:48:17.863Z,101166.41
2022-11-29T10:50:48.849Z,101173.81
2022-11-29T10:53:19.806Z,101169.41
2022-11-29T10:55:51.016Z,101179.34
2022-11-29T10:58:27.912Z,101177.63
2022-11-29T11:00:59.261Z,101176.53
2022-11-29T11:03:36.222Z,101175.91
2022-11-29T11:06:09.684Z,101172.09
2022-11-29T11:08:39.775Z,101168.47
2022-11-29T11:11:08.944Z,101175.44
2022-11-29T11:13:39.344Z,101178.88
2022-11-29T11:16:17.075Z,101176.00
2022-11-29T11:18:48.440Z,101174.31
2022-11-29T11:21:19.807Z,101176.53
2022-11-29T11:23:55.311Z,101170.31
2022-11-29T11:26:25.070Z,101175.31
2022-11-29T11:28:57.904Z,101170.63
2022-11-29T11:31:38.065Z,101167.25
2022-11-29T11:34:34.352Z,101178.88
2022-11-29T11:37:25.143Z,101178.22
2022-11-29T11:39:55.962Z,101176.34
2022-11-29T11:42:38.927Z,101178.94
2022-11-29T11:45:31.641Z,101183.84
2022-11-29T11:48:03.287Z,101180.50
2022-11-29T11:50:35.504Z,101182.63
2022-11-29T11:53:06.890Z,101184.59
2022-11-29T11:55:37.918Z,101190.13
2022-11-29T11:58:18.069Z,101193.09
2022-11-29T12:01:05.532Z,101193.31
2022-11-29T12:03:39.712Z,101197.34
2022-11-29T12:06:25.498Z,101192.09
2022-11-29T12:08:57.166Z,101196.44
2022-11-29T12:11:26.675Z,101193.91
2022-11-29T12:13:57.804Z,101190.03
2022-11-29T12:16:30.810Z,101192.69
2022-11-29T12:19:02.783Z,101200.22
2022-11-29T12:21:37.872Z,101193.16
2022-11-29T12:24:15.040Z,101193.16
2022-11-29T12:26:59.720Z,101196.44
2022-11-29T12:29:30.832Z,101199.63
2022-11-29T12:32:06.623Z,101197.25
2022-11-29T12:34:52.491Z,101192.13
2022-11-29T12:37:27.005Z,101213.72
2022-11-29T12:40:01.123Z,101204.81
2022-11-29T12:42:44.339Z,101208.25
2022-11-29T12:45:25.804Z,101208.75
2022-11-29T12:48:02.420Z,101214.94
2022-11-29T12:50:37.368Z,101211.66
2022-11-29T12:53:27.050Z,101221.47
2022-11-29T12:56:04.140Z,101210.25
2022-11-29T12:58:41.282Z,101218.41
2022-11-29T13:01:19.847Z,101218.50
2022-11-29T13:03:54.957Z,101227.16
2022-11-29T13:06:28.669Z,101223.22
2022-11-29T13:09:26.567Z,101218.88
2022-11-29T13:11:59.200Z,101226.25
2022-11-29T13:14:42.639Z,101230.31
2022-11-29T13:17:22.989Z,101235.03
2022-11-29T13:19:54.235Z,101234.59
2022-11-29T13:22:33.412Z,101242.94
2022-11-29T13:25:05.882Z,101247.63
2022-11-29T13:27:36.722Z,101251.81
2022-11-29T13:30:06.581Z,101248.94
2022-11-29T13:32:37.259Z,101247.56
2022-11-29T13:35:12.964Z,101246.13
2022-11-29T13:37:50.616Z,101253.06
2022-11-29T13:40:29.805Z,101254.09
2022-11-29T13:43:02.539Z,101253.75
2022-11-29T13:45:36.409Z,101263.28
2022-11-29T13:48:27.864Z,101261.22
2022-11-29T13:50:57.316Z,101258.16
2022-11-29T13:53:29.632Z,101260.13
2022-11-29T13:56:01.877Z,101259.63
2022-11-29T13:58:40.626Z,101259.66
2022-11-29T14:01:10.206Z,101254.25
2022-11-29T14:03:41.120Z,101250.34
2022-11-29T14:06:12.603Z,101257.13
2022-11-29T14:09:17.421Z,101262.03
2022-11-29T14:11:37.932Z,101260.22
2022-11-29T14:14:09.037Z,101247.38
2022-11-29T14:16:40.699Z,101250.34
2022-11-29T14:19:32.867Z,101253.78
2022-11-29T14:22:26.208Z,101244.94
2022-11-29T14:25:42.897Z,101259.34
2022-11-29T14:28:05.386Z,101250.28
2022-11-29T14:30:47.697Z,101254.50
2022-11-29T14:33:28.261Z,101254.50
2022-11-29T14:36:08.777Z,101254.81
2022-11-29T14:38:43.208Z,101260.28
2022-11-29T14:41:21.364Z,101251.16
2022-11-29T14:43:51.223Z,101245.88
2022-11-29T14:46:29.403Z,101253.69
2022-11-29T14:49:01.131Z,101260.44
2022-11-29T14:51:32.092Z,101262.09
2022-11-29T14:54:07.676Z,101244.47
2022-11-29T14:56:39.146Z,101255.28
2022-11-29T14:59:42.661Z,101249.50
2022-11-29T15:02:25.025Z,101245.00
2022-11-29T15:04:56.286Z,101255.69
2022-11-29T15:07:29.331Z,101263.59
2022-11-29T15:10:01.053Z,101265.69
2022-11-29T15:12:35.062Z,101265.59
2022-11-29T15:15:12.568Z,101266.03
2022-11-29T15:17:49.206Z,101266.88
2022-11-29T15:20:42.502Z,101270.59
2022-11-29T15:23:13.044Z,101269.31
2022-11-29T15:25:48.665Z,101268.47
2022-11-29T15:28:22.899Z,101271.09
2022-11-29T15:31:02.898Z,101271.13
2022-11-29T15:33:31.697Z,101274.72
2022-11-29T15:36:06.668Z,101270.84
2022-11-29T15:38:43.272Z,101273.91
2022-11-29T15:41:21.049Z,101277.47
2022-11-29T15:43:53.363Z,101284.06
2022-11-29T15:46:26.928Z,101282.63
2022-11-29T15:48:55.821Z,101279.81
2022-11-29T15:51:29.787Z,101285.91
2022-11-29T15:54:12.127Z,101295.63
2022-11-29T15:56:45.714Z,101300.75
2022-11-29T15:59:18.318Z,101297.84
2022-11-29T16:01:51.479Z,101304.09
2022-11-29T16:04:21.823Z,101304.34
2022-11-29T16:06:51.857Z,101306.59
2022-11-29T16:09:22.676Z,101300.19
2022-11-29T16:11:51.573Z,101291.06
2022-11-29T16:14:23.400Z,101290.69
2022-11-29T16:16:55.610Z,101296.31
2022-11-29T16:19:32.090Z,101296.69
2022-11-29T16:22:22.432Z,101298.78
2022-11-29T16:24:55.095Z,101290.84
2022-11-29T16:27:24.531Z,101296.84
2022-11-29T16:29:55.141Z,101298.91
2022-11-29T16:32:28.641Z,101305.13
2022-11-29T16:34:57.911Z,101308.34
2022-11-29T16:37:28.165Z,101299.88
2022-11-29T16:40:00.013Z,101302.00
2022-11-29T16:42:30.161Z,101297.78
2022-11-29T16:45:24.317Z,101312.94
2022-11-29T16:47:58.951Z,101302.94
2022-11-29T16:50:29.042Z,101307.81
2022-11-29T16:52:59.234Z,101313.09
2022-11-29T16:55:27.914Z,101315.81
2022-11-29T16:57:56.671Z,101313.41
2022-11-29T17:00:31.532Z,101316.22
2022-11-29T17:03:01.624Z,101314.13
2022-11-29T17:05:30.386Z,101317.41
2022-11-29T17:07:59.067Z,101325.63
2022-11-29T17:10:28.981Z,101317.84
2022-11-29T17:12:57.639Z,101320.69
2022-11-29T17:15:26.238Z,101325.28
2022-11-29T17:17:54.913Z,101330.88
2022-11-29T17:20:25.005Z,101332.03
2022-11-29T17:22:53.364Z,101322.78
2022-11-29T17:25:22.006Z,101332.84
2022-11-29T17:27:50.740Z,101319.84
2022-11-29T17:30:19.760Z,101324.84
2022-11-29T17:32:48.514Z,101331.28
2022-11-29T17:35:17.266Z,101329.34
2022-11-29T17:37:46.955Z,101335.44
2022-11-29T17:40:16.171Z,101334.84
2022-11-29T17:42:44.917Z,101326.19
2022-11-29T17:45:13.515Z,101341.84
2022-11-29T17:47:42.346Z,101339.31
2022-11-29T17:50:12.193Z,101338.09
2022-11-29T17:52:40.660Z,101336.63
2022-11-29T17:55:11.456Z,101341.09
2022-11-29T17:57:40.125Z,101339.22
2022-11-29T18:00:12.963Z,101336.25
2022-11-29T18:02:41.748Z,101328.97
2022-11-29T18:05:10.881Z,101341.16
2022-11-29T18:07:58.053Z,101337.13
2022-11-29T18:10:29.411Z,101341.25
2022-11-29T18:12:58.239Z,101337.84
2022-11-29T18:15:26.929Z,101345.97
2022-11-29T18:17:55.617Z,101345.66
2022-11-29T18:20:24.318Z,101340.16
2022-11-29T18:22:53.419Z,101346.88
2022-11-29T18:25:39.564Z,101342.16
2022-11-29T18:28:11.470Z,101345.16
2022-11-29T18:30:40.177Z,101340.97
2022-11-29T18:33:08.907Z,101343.31
2022-11-29T18:35:37.530Z,101349.22
2022-11-29T18:38:15.266Z,101351.66
2022-11-29T18:40:45.785Z,101352.44
2022-11-29T18:43:17.176Z,101346.38
2022-11-29T18:45:45.899Z,101348.78
2022-11-29T18:48:14.645Z,101352.69
2022-11-29T18:50:43.335Z,101351.97
2022-11-29T18:53:12.181Z,101351.63
2022-11-29T18:55:40.562Z,101350.38
2022-11-29T18:58:09.211Z,101348.78
2022-11-29T19:00:39.313Z,101352.66
2022-11-29T19:03:08.094Z,101357.28
2022-11-29T19:05:36.787Z,101355.72
2022-11-29T19:08:05.723Z,101357.13
2022-11-29T19:10:34.056Z,101367.88
2022-11-29T19:13:02.942Z,101360.03
2022-11-29T19:15:31.729Z,101366.88
2022-11-29T19:18:01.857Z,101369.91
2022-11-29T19:20:34.123Z,101367.75
2022-11-29T19:23:03.069Z,101365.91
2022-11-29T19:25:31.311Z,101370.47
2022-11-29T19:28:00.186Z,101371.50
2022-11-29T19:30:28.919Z,101368.16
2022-11-29T19:32:57.545Z,101371.66
2022-11-29T19:35:27.607Z,101371.91
2022-11-29T19:37:55.953Z,101374.78
2022-11-29T19:40:24.578Z,101378.31
2022-11-29T19:42:53.279Z,101378.06
2022-11-29T19:45:22.654Z,101380.56
2022-11-29T19:47:51.371Z,101388.94
2022-11-29T19:50:20.127Z,101387.59
2022-11-29T19:52:50.108Z,101379.31
2022-11-29T19:55:18.953Z,101388.28
2022-11-29T19:57:47.621Z,101380.75
2022-11-29T20:00:17.390Z,101377.28
2022-11-29T20:02:46.210Z,101381.59
2022-11-29T20:05:15.447Z,101386.25
2022-11-29T20:07:43.931Z,101385.97
2022-11-29T20:10:14.238Z,101390.84
2022-11-29T20:12:42.921Z,101396.88
2022-11-29T20:15:11.977Z,101397.66
2022-11-29T20:17:41.041Z,101400.66
2022-11-29T20:20:11.296Z,101398.34
2022-11-29T20:22:39.677Z,101392.22
2022-11-29T20:25:08.853Z,101402.91
2022-11-29T20:27:38.816Z,101403.81
2022-11-29T20:30:10.494Z,101398.41
2022-11-29T20:32:39.543Z,101394.28
2022-11-29T20:35:10.178Z,101403.50
2022-11-29T20:37:54.454Z,101407.63
2022-11-29T20:40:26.198Z,101405.53
2022-11-29T20:43:04.932Z,101407.38
2022-11-29T20:45:34.312Z,101394.03
2022-11-29T20:48:09.422Z,101406.38
2022-11-29T20:50:38.677Z,101407.28
2022-11-29T20:53:16.891Z,101400.56
2022-11-29T20:55:48.239Z,101404.53
2022-11-29T20:58:19.728Z,101398.88
2022-11-29T21:00:48.927Z,101400.44
2022-11-29T21:03:18.232Z,101404.31
2022-11-29T21:05:47.415Z,101409.00
2022-11-29T21:08:17.604Z,101411.69
2022-11-29T21:10:46.777Z,101413.25
2022-11-29T21:13:16.400Z,101410.41
2022-11-29T21:15:47.418Z,101407.81
2022-11-29T21:18:23.044Z,101407.75
2022-11-29T21:21:03.349Z,101411.78
2022-11-29T21:23:34.830Z,101419.75
2022-11-29T21:26:07.622Z,101428.09
2022-11-29T21:28:40.140Z,101418.19
2022-11-29T21:31:13.376Z,101418.81
2022-11-29T21:33:42.983Z,101421.78
2022-11-29T21:36:11.972Z,101424.63
2022-11-29T21:38:41.302Z,101424.97
2022-11-29T21:41:09.928Z,101421.44
2022-11-29T21:44:09.022Z,101423.78
2022-11-29T21:46:30.634Z,101426.63
2022-11-29T21:48:59.314Z,101426.13
2022-11-29T21:51:27.982Z,101424.09
2022-11-29T21:53:56.587Z,101428.41
2022-11-29T21:56:25.217Z,101434.06
2022-11-29T21:58:53.591Z,101433.03
2022-11-29T22:01:22.606Z,101434.28
2022-11-29T22:03:53.518Z,101438.06
2022-11-29T22:06:24.386Z,101443.84
2022-11-29T22:08:53.485Z,101444.31
2022-11-29T22:11:31.856Z,101447.47
2022-11-29T22:14:16.362Z,101440.84
2022-11-29T22:16:49.559Z,101448.00
2022-11-29T22:19:21.054Z,101455.28
2022-11-29T22:21:50.824Z,101444.16
2022-11-29T22:24:21.232Z,101440.38
2022-11-29T22:26:50.424Z,101446.78
2022-11-29T22:29:19.200Z,101456.66
2022-11-29T22:31:49.586Z,101451.09
2022-11-29T22:34:20.070Z,101448.50
2022-11-29T22:36:48.721Z,101450.75
2022-11-29T22:39:17.398Z,101447.22
2022-11-29T22:41:52.305Z,101458.94
2022-11-29T22:44:22.843Z,101453.31
2022-11-29T22:46:51.343Z,101439.22
2022-11-29T22:49:21.494Z,101438.16
2022-11-29T22:51:50.090Z,101435.28
2022-11-29T22:54:18.918Z,101433.97
2022-11-29T22:56:48.263Z,101439.53
2022-11-29T22:59:17.072Z,101440.28
2022-11-29T23:01:45.799Z,101435.34
2022-11-29T23:04:14.963Z,101443.25
2022-11-29T23:06:46.195Z,101430.28
2022-11-29T23:09:16.841Z,101439.47
2022-11-29T23:11:46.275Z,101434.38
2022-11-29T23:14:15.220Z,101429.91
2022-11-29T23:16:43.507Z,101423.63
2022-11-29T23:19:12.329Z,101430.09
2022-11-29T23:21:41.963Z,101416.44
2022-11-29T23:24:12.288Z,101413.41
2022-11-29T23:26:42.233Z,101415.84
2022-11-29T23:29:12.458Z,101412.69
2022-11-29T23:31:40.800Z,101413.09
2022-11-29T23:34:09.582Z,101414.25
2022-11-29T23:36:38.277Z,101413.97
2022-11-29T23:39:07.613Z,101418.56
2022-11-29T23:41:37.951Z,101415.13
2022-11-29T23:44:06.536Z,101409.22
2022-11-29T23:46:36.839Z,101412.16
2022-11-29T23:49:05.487Z,101406.34
2022-11-29T23:51:34.129Z,101403.84
2022-11-29T23:54:02.794Z,101403.22
2022-11-29T23:56:35.625Z,101399.38
2022-11-29T23:59:06.001Z,101412.63
